sensor_id;sensor_type;location;lat;lon;timestamp;P1;durP1;ratioP1;P2;durP2;ratioP2
23747;SDS011;12054;53.662;10.126;2023-07-24T00:01:49;4.70;;;3.53;;
23747;SDS011;12054;53.662;10.126;2023-07-24T00:04:15;5.70;;;3.70;;
23747;SDS011;12054;53.662;10.126;2023-07-24T00:06:40;4.72;;;4.13;;
23747;SDS011;12054;53.662;10.126;2023-07-24T00:09:06;5.90;;;4.13;;
23747;SDS011;12054;53.662;10.126;2023-07-24T00:11:31;5.10;;;3.75;;
23747;SDS011;12054;53.662;10.126;2023-07-24T00:13:57;4.65;;;4.22;;
23747;SDS011;12054;53.662;10.126;2023-07-24T00:16:22;7.43;;;4.05;;
23747;SDS011;12054;53.662;10.126;2023-07-24T00:18:47;4.65;;;3.78;;
23747;SDS011;12054;53.662;10.126;2023-07-24T00:21:13;4.90;;;4.03;;
23747;SDS011;12054;53.662;10.126;2023-07-24T00:23:39;5.38;;;4.25;;
23747;SDS011;12054;53.662;10.126;2023-07-24T00:26:05;6.00;;;4.35;;
23747;SDS011;12054;53.662;10.126;2023-07-24T00:28:32;6.55;;;4.13;;
23747;SDS011;12054;53.662;10.126;2023-07-24T00:30:57;4.18;;;3.78;;
23747;SDS011;12054;53.662;10.126;2023-07-24T00:33:23;5.93;;;4.68;;
23747;SDS011;12054;53.662;10.126;2023-07-24T00:35:49;5.85;;;4.38;;
23747;SDS011;12054;53.662;10.126;2023-07-24T00:38:14;6.03;;;4.22;;
23747;SDS011;12054;53.662;10.126;2023-07-24T00:40:40;5.35;;;4.38;;
23747;SDS011;12054;53.662;10.126;2023-07-24T00:43:05;6.57;;;3.90;;
23747;SDS011;12054;53.662;10.126;2023-07-24T00:45:31;6.55;;;5.20;;
23747;SDS011;12054;53.662;10.126;2023-07-24T00:47:57;4.65;;;4.00;;
23747;SDS011;12054;53.662;10.126;2023-07-24T00:50:24;4.53;;;3.83;;
23747;SDS011;12054;53.662;10.126;2023-07-24T00:52:50;6.40;;;3.83;;
23747;SDS011;12054;53.662;10.126;2023-07-24T00:55:16;5.15;;;4.65;;
23747;SDS011;12054;53.662;10.126;2023-07-24T00:57:42;6.20;;;3.92;;
23747;SDS011;12054;53.662;10.126;2023-07-24T01:00:08;8.32;;;4.40;;
23747;SDS011;12054;53.662;10.126;2023-07-24T01:02:34;6.68;;;4.22;;
23747;SDS011;12054;53.662;10.126;2023-07-24T01:05:01;5.47;;;4.80;;
23747;SDS011;12054;53.662;10.126;2023-07-24T01:07:26;5.35;;;4.47;;
23747;SDS011;12054;53.662;10.126;2023-07-24T01:09:52;6.82;;;4.95;;
23747;SDS011;12054;53.662;10.126;2023-07-24T01:12:38;5.82;;;4.18;;
23747;SDS011;12054;53.662;10.126;2023-07-24T01:15:12;8.73;;;4.43;;
23747;SDS011;12054;53.662;10.126;2023-07-24T01:17:46;5.38;;;4.45;;
23747;SDS011;12054;53.662;10.126;2023-07-24T01:20:19;6.07;;;4.68;;
23747;SDS011;12054;53.662;10.126;2023-07-24T01:25:35;5.70;;;4.88;;
23747;SDS011;12054;53.662;10.126;2023-07-24T01:28:09;5.55;;;4.88;;
23747;SDS011;12054;53.662;10.126;2023-07-24T01:30:34;6.68;;;5.25;;
23747;SDS011;12054;53.662;10.126;2023-07-24T01:33:00;6.88;;;4.90;;
23747;SDS011;12054;53.662;10.126;2023-07-24T01:35:26;8.35;;;5.50;;
23747;SDS011;12054;53.662;10.126;2023-07-24T01:37:54;6.15;;;5.10;;
23747;SDS011;12054;53.662;10.126;2023-07-24T01:40:21;6.65;;;5.35;;
23747;SDS011;12054;53.662;10.126;2023-07-24T01:42:47;6.57;;;5.18;;
23747;SDS011;12054;53.662;10.126;2023-07-24T01:45:15;7.10;;;5.53;;
23747;SDS011;12054;53.662;10.126;2023-07-24T01:47:40;6.97;;;5.30;;
23747;SDS011;12054;53.662;10.126;2023-07-24T01:50:06;7.13;;;5.13;;
23747;SDS011;12054;53.662;10.126;2023-07-24T01:52:32;6.68;;;4.93;;
23747;SDS011;12054;53.662;10.126;2023-07-24T01:54:57;7.13;;;5.18;;
23747;SDS011;12054;53.662;10.126;2023-07-24T01:57:23;6.93;;;4.95;;
23747;SDS011;12054;53.662;10.126;2023-07-24T01:59:48;5.35;;;4.40;;
23747;SDS011;12054;53.662;10.126;2023-07-24T02:02:14;7.38;;;4.80;;
23747;SDS011;12054;53.662;10.126;2023-07-24T02:04:39;5.85;;;5.25;;
23747;SDS011;12054;53.662;10.126;2023-07-24T02:07:06;5.80;;;4.60;;
23747;SDS011;12054;53.662;10.126;2023-07-24T02:09:31;6.80;;;4.88;;
23747;SDS011;12054;53.662;10.126;2023-07-24T02:11:57;6.65;;;5.00;;
23747;SDS011;12054;53.662;10.126;2023-07-24T02:14:22;6.55;;;5.00;;
23747;SDS011;12054;53.662;10.126;2023-07-24T02:16:49;5.22;;;4.65;;
23747;SDS011;12054;53.662;10.126;2023-07-24T02:19:14;7.60;;;5.63;;
23747;SDS011;12054;53.662;10.126;2023-07-24T02:21:40;6.70;;;5.63;;
23747;SDS011;12054;53.662;10.126;2023-07-24T02:24:05;8.65;;;5.43;;
23747;SDS011;12054;53.662;10.126;2023-07-24T02:26:31;5.43;;;4.75;;
23747;SDS011;12054;53.662;10.126;2023-07-24T02:28:56;6.78;;;5.30;;
23747;SDS011;12054;53.662;10.126;2023-07-24T02:31:22;6.80;;;5.05;;
23747;SDS011;12054;53.662;10.126;2023-07-24T02:33:47;7.80;;;6.32;;
23747;SDS011;12054;53.662;10.126;2023-07-24T02:36:13;7.75;;;6.13;;
23747;SDS011;12054;53.662;10.126;2023-07-24T02:38:38;8.65;;;5.75;;
23747;SDS011;12054;53.662;10.126;2023-07-24T02:41:04;6.88;;;5.82;;
23747;SDS011;12054;53.662;10.126;2023-07-24T02:43:29;8.30;;;5.65;;
23747;SDS011;12054;53.662;10.126;2023-07-24T02:45:55;6.63;;;5.70;;
23747;SDS011;12054;53.662;10.126;2023-07-24T02:48:25;9.35;;;5.88;;
23747;SDS011;12054;53.662;10.126;2023-07-24T02:50:51;8.07;;;6.03;;
23747;SDS011;12054;53.662;10.126;2023-07-24T02:53:16;7.18;;;5.95;;
23747;SDS011;12054;53.662;10.126;2023-07-24T02:55:42;9.38;;;6.20;;
23747;SDS011;12054;53.662;10.126;2023-07-24T02:58:08;8.95;;;6.53;;
23747;SDS011;12054;53.662;10.126;2023-07-24T03:00:34;8.02;;;6.13;;
23747;SDS011;12054;53.662;10.126;2023-07-24T03:02:59;8.15;;;6.78;;
23747;SDS011;12054;53.662;10.126;2023-07-24T03:05:25;7.93;;;6.53;;
23747;SDS011;12054;53.662;10.126;2023-07-24T03:07:50;8.02;;;6.43;;
23747;SDS011;12054;53.662;10.126;2023-07-24T03:10:16;10.18;;;7.00;;
23747;SDS011;12054;53.662;10.126;2023-07-24T03:12:41;9.27;;;7.30;;
23747;SDS011;12054;53.662;10.126;2023-07-24T03:15:07;11.63;;;7.05;;
23747;SDS011;12054;53.662;10.126;2023-07-24T03:17:33;9.85;;;6.95;;
23747;SDS011;12054;53.662;10.126;2023-07-24T03:19:59;9.77;;;7.45;;
23747;SDS011;12054;53.662;10.126;2023-07-24T03:22:24;8.48;;;6.72;;
23747;SDS011;12054;53.662;10.126;2023-07-24T03:24:50;7.88;;;6.97;;
23747;SDS011;12054;53.662;10.126;2023-07-24T03:27:15;8.27;;;6.38;;
23747;SDS011;12054;53.662;10.126;2023-07-24T03:29:41;7.25;;;6.43;;
23747;SDS011;12054;53.662;10.126;2023-07-24T03:32:06;8.65;;;6.07;;
23747;SDS011;12054;53.662;10.126;2023-07-24T03:34:32;8.18;;;6.40;;
23747;SDS011;12054;53.662;10.126;2023-07-24T03:36:57;7.28;;;5.97;;
23747;SDS011;12054;53.662;10.126;2023-07-24T03:39:23;8.30;;;6.50;;
23747;SDS011;12054;53.662;10.126;2023-07-24T03:41:48;8.57;;;6.50;;
23747;SDS011;12054;53.662;10.126;2023-07-24T03:44:14;6.72;;;5.90;;
23747;SDS011;12054;53.662;10.126;2023-07-24T03:46:39;8.45;;;5.90;;
23747;SDS011;12054;53.662;10.126;2023-07-24T03:49:05;8.07;;;6.03;;
23747;SDS011;12054;53.662;10.126;2023-07-24T03:51:30;9.15;;;5.95;;
23747;SDS011;12054;53.662;10.126;2023-07-24T03:53:58;9.60;;;6.10;;
23747;SDS011;12054;53.662;10.126;2023-07-24T03:56:23;9.18;;;6.13;;
23747;SDS011;12054;53.662;10.126;2023-07-24T03:58:49;6.53;;;5.82;;
23747;SDS011;12054;53.662;10.126;2023-07-24T04:01:14;7.78;;;5.85;;
23747;SDS011;12054;53.662;10.126;2023-07-24T04:03:40;6.80;;;5.75;;
23747;SDS011;12054;53.662;10.126;2023-07-24T04:06:05;6.88;;;5.90;;
23747;SDS011;12054;53.662;10.126;2023-07-24T04:08:31;6.47;;;5.43;;
23747;SDS011;12054;53.662;10.126;2023-07-24T04:10:56;8.07;;;5.80;;
23747;SDS011;12054;53.662;10.126;2023-07-24T04:13:22;7.05;;;5.70;;
23747;SDS011;12054;53.662;10.126;2023-07-24T04:15:48;6.15;;;5.55;;
23747;SDS011;12054;53.662;10.126;2023-07-24T04:18:13;8.80;;;6.18;;
23747;SDS011;12054;53.662;10.126;2023-07-24T04:20:39;7.15;;;5.72;;
23747;SDS011;12054;53.662;10.126;2023-07-24T04:23:04;8.13;;;6.30;;
23747;SDS011;12054;53.662;10.126;2023-07-24T04:25:30;6.90;;;6.07;;
23747;SDS011;12054;53.662;10.126;2023-07-24T04:27:55;7.72;;;6.40;;
23747;SDS011;12054;53.662;10.126;2023-07-24T04:30:21;7.40;;;6.05;;
23747;SDS011;12054;53.662;10.126;2023-07-24T04:32:46;8.57;;;6.15;;
23747;SDS011;12054;53.662;10.126;2023-07-24T04:35:12;8.90;;;6.32;;
23747;SDS011;12054;53.662;10.126;2023-07-24T04:37:37;7.97;;;6.30;;
23747;SDS011;12054;53.662;10.126;2023-07-24T04:40:03;8.52;;;5.95;;
23747;SDS011;12054;53.662;10.126;2023-07-24T04:42:30;9.45;;;6.28;;
23747;SDS011;12054;53.662;10.126;2023-07-24T04:44:55;7.03;;;5.68;;
23747;SDS011;12054;53.662;10.126;2023-07-24T04:47:21;8.98;;;6.55;;
23747;SDS011;12054;53.662;10.126;2023-07-24T04:49:46;7.25;;;6.15;;
23747;SDS011;12054;53.662;10.126;2023-07-24T04:52:12;8.52;;;5.95;;
23747;SDS011;12054;53.662;10.126;2023-07-24T04:54:37;8.50;;;6.13;;
23747;SDS011;12054;53.662;10.126;2023-07-24T04:57:03;6.47;;;5.47;;
23747;SDS011;12054;53.662;10.126;2023-07-24T04:59:29;6.50;;;5.72;;
23747;SDS011;12054;53.662;10.126;2023-07-24T05:01:54;8.68;;;5.70;;
23747;SDS011;12054;53.662;10.126;2023-07-24T05:04:20;7.95;;;5.90;;
23747;SDS011;12054;53.662;10.126;2023-07-24T05:06:46;8.00;;;5.57;;
23747;SDS011;12054;53.662;10.126;2023-07-24T05:09:11;7.93;;;6.10;;
23747;SDS011;12054;53.662;10.126;2023-07-24T05:11:37;7.45;;;5.65;;
23747;SDS011;12054;53.662;10.126;2023-07-24T05:14:02;6.95;;;5.65;;
23747;SDS011;12054;53.662;10.126;2023-07-24T05:16:28;7.15;;;5.20;;
23747;SDS011;12054;53.662;10.126;2023-07-24T05:18:53;6.35;;;5.65;;
23747;SDS011;12054;53.662;10.126;2023-07-24T05:21:19;7.32;;;6.07;;
23747;SDS011;12054;53.662;10.126;2023-07-24T05:23:45;8.48;;;5.63;;
23747;SDS011;12054;53.662;10.126;2023-07-24T05:26:10;7.93;;;5.65;;
23747;SDS011;12054;53.662;10.126;2023-07-24T05:28:36;8.60;;;5.78;;
23747;SDS011;12054;53.662;10.126;2023-07-24T05:31:04;7.95;;;6.03;;
23747;SDS011;12054;53.662;10.126;2023-07-24T05:33:30;11.95;;;5.80;;
23747;SDS011;12054;53.662;10.126;2023-07-24T05:36:00;7.75;;;5.70;;
23747;SDS011;12054;53.662;10.126;2023-07-24T05:38:26;6.68;;;5.38;;
23747;SDS011;12054;53.662;10.126;2023-07-24T05:41:02;9.20;;;5.78;;
23747;SDS011;12054;53.662;10.126;2023-07-24T05:43:28;7.07;;;5.30;;
23747;SDS011;12054;53.662;10.126;2023-07-24T05:45:56;6.70;;;5.15;;
23747;SDS011;12054;53.662;10.126;2023-07-24T05:48:22;6.75;;;5.82;;
23747;SDS011;12054;53.662;10.126;2023-07-24T05:50:49;7.18;;;5.65;;
23747;SDS011;12054;53.662;10.126;2023-07-24T05:53:14;8.05;;;5.88;;
23747;SDS011;12054;53.662;10.126;2023-07-24T05:55:40;7.55;;;5.65;;
23747;SDS011;12054;53.662;10.126;2023-07-24T05:58:07;7.35;;;6.07;;
23747;SDS011;12054;53.662;10.126;2023-07-24T06:00:33;7.45;;;6.45;;
23747;SDS011;12054;53.662;10.126;2023-07-24T06:02:58;10.13;;;6.25;;
23747;SDS011;12054;53.662;10.126;2023-07-24T06:05:24;8.55;;;6.35;;
23747;SDS011;12054;53.662;10.126;2023-07-24T06:07:49;7.65;;;6.22;;
23747;SDS011;12054;53.662;10.126;2023-07-24T06:10:14;7.72;;;5.90;;
23747;SDS011;12054;53.662;10.126;2023-07-24T06:12:40;7.97;;;5.82;;
23747;SDS011;12054;53.662;10.126;2023-07-24T06:15:06;9.40;;;6.57;;
23747;SDS011;12054;53.662;10.126;2023-07-24T06:17:32;9.77;;;6.93;;
23747;SDS011;12054;53.662;10.126;2023-07-24T06:19:57;9.35;;;7.53;;
23747;SDS011;12054;53.662;10.126;2023-07-24T06:22:23;6.30;;;5.55;;
23747;SDS011;12054;53.662;10.126;2023-07-24T06:24:49;7.25;;;6.20;;
23747;SDS011;12054;53.662;10.126;2023-07-24T06:27:15;7.65;;;6.55;;
23747;SDS011;12054;53.662;10.126;2023-07-24T06:29:40;8.25;;;6.50;;
23747;SDS011;12054;53.662;10.126;2023-07-24T06:32:06;8.27;;;6.85;;
23747;SDS011;12054;53.662;10.126;2023-07-24T06:34:35;6.80;;;6.05;;
23747;SDS011;12054;53.662;10.126;2023-07-24T06:37:01;8.00;;;6.50;;
23747;SDS011;12054;53.662;10.126;2023-07-24T06:39:26;7.43;;;6.10;;
23747;SDS011;12054;53.662;10.126;2023-07-24T06:41:53;8.27;;;6.15;;
23747;SDS011;12054;53.662;10.126;2023-07-24T06:44:19;7.20;;;6.05;;
23747;SDS011;12054;53.662;10.126;2023-07-24T06:46:45;7.43;;;6.03;;
23747;SDS011;12054;53.662;10.126;2023-07-24T06:49:10;7.95;;;5.93;;
23747;SDS011;12054;53.662;10.126;2023-07-24T06:51:36;7.30;;;5.93;;
23747;SDS011;12054;53.662;10.126;2023-07-24T06:54:03;7.22;;;5.50;;
23747;SDS011;12054;53.662;10.126;2023-07-24T06:56:29;6.60;;;5.90;;
23747;SDS011;12054;53.662;10.126;2023-07-24T06:58:54;6.78;;;5.53;;
23747;SDS011;12054;53.662;10.126;2023-07-24T07:01:20;8.38;;;6.20;;
23747;SDS011;12054;53.662;10.126;2023-07-24T07:03:45;8.45;;;5.63;;
23747;SDS011;12054;53.662;10.126;2023-07-24T07:06:11;8.25;;;6.20;;
23747;SDS011;12054;53.662;10.126;2023-07-24T07:08:37;8.77;;;5.53;;
23747;SDS011;12054;53.662;10.126;2023-07-24T07:11:03;6.68;;;6.03;;
23747;SDS011;12054;53.662;10.126;2023-07-24T07:13:28;8.77;;;6.30;;
23747;SDS011;12054;53.662;10.126;2023-07-24T07:15:54;7.90;;;5.88;;
23747;SDS011;12054;53.662;10.126;2023-07-24T07:18:19;6.40;;;5.70;;
23747;SDS011;12054;53.662;10.126;2023-07-24T07:20:45;7.53;;;6.47;;
23747;SDS011;12054;53.662;10.126;2023-07-24T07:23:15;7.57;;;6.28;;
23747;SDS011;12054;53.662;10.126;2023-07-24T07:25:40;8.48;;;6.50;;
23747;SDS011;12054;53.662;10.126;2023-07-24T07:28:08;6.70;;;5.97;;
23747;SDS011;12054;53.662;10.126;2023-07-24T07:30:34;6.63;;;5.68;;
23747;SDS011;12054;53.662;10.126;2023-07-24T07:32:59;7.22;;;6.15;;
23747;SDS011;12054;53.662;10.126;2023-07-24T07:35:25;6.95;;;6.20;;
23747;SDS011;12054;53.662;10.126;2023-07-24T07:37:50;6.82;;;5.97;;
23747;SDS011;12054;53.662;10.126;2023-07-24T07:40:16;6.80;;;6.10;;
23747;SDS011;12054;53.662;10.126;2023-07-24T07:42:41;6.25;;;5.65;;
23747;SDS011;12054;53.662;10.126;2023-07-24T07:45:07;8.93;;;5.85;;
23747;SDS011;12054;53.662;10.126;2023-07-24T07:47:33;6.38;;;5.60;;
23747;SDS011;12054;53.662;10.126;2023-07-24T07:50:01;7.57;;;6.78;;
23747;SDS011;12054;53.662;10.126;2023-07-24T07:52:27;6.60;;;5.75;;
23747;SDS011;12054;53.662;10.126;2023-07-24T07:54:53;6.70;;;6.05;;
23747;SDS011;12054;53.662;10.126;2023-07-24T07:57:18;7.00;;;6.30;;
23747;SDS011;12054;53.662;10.126;2023-07-24T07:59:44;7.68;;;6.88;;
23747;SDS011;12054;53.662;10.126;2023-07-24T08:02:09;7.18;;;6.47;;
23747;SDS011;12054;53.662;10.126;2023-07-24T08:04:35;7.10;;;6.40;;
23747;SDS011;12054;53.662;10.126;2023-07-24T08:07:00;7.30;;;6.60;;
23747;SDS011;12054;53.662;10.126;2023-07-24T08:09:26;7.90;;;6.97;;
23747;SDS011;12054;53.662;10.126;2023-07-24T08:11:51;7.57;;;6.80;;
23747;SDS011;12054;53.662;10.126;2023-07-24T08:14:17;8.07;;;7.05;;
23747;SDS011;12054;53.662;10.126;2023-07-24T08:16:43;7.85;;;7.05;;
23747;SDS011;12054;53.662;10.126;2023-07-24T08:19:08;7.10;;;6.18;;
23747;SDS011;12054;53.662;10.126;2023-07-24T08:21:34;8.00;;;6.88;;
23747;SDS011;12054;53.662;10.126;2023-07-24T08:24:00;7.55;;;6.35;;
23747;SDS011;12054;53.662;10.126;2023-07-24T08:26:26;7.93;;;7.13;;
23747;SDS011;12054;53.662;10.126;2023-07-24T08:28:53;9.30;;;7.40;;
23747;SDS011;12054;53.662;10.126;2023-07-24T08:31:19;7.68;;;6.88;;
23747;SDS011;12054;53.662;10.126;2023-07-24T08:33:44;7.95;;;7.15;;
23747;SDS011;12054;53.662;10.126;2023-07-24T08:36:10;7.50;;;6.30;;
23747;SDS011;12054;53.662;10.126;2023-07-24T08:38:39;7.60;;;6.75;;
23747;SDS011;12054;53.662;10.126;2023-07-24T08:41:06;7.88;;;7.05;;
23747;SDS011;12054;53.662;10.126;2023-07-24T08:43:36;7.70;;;6.97;;
23747;SDS011;12054;53.662;10.126;2023-07-24T08:46:04;7.93;;;7.18;;
23747;SDS011;12054;53.662;10.126;2023-07-24T08:48:32;7.72;;;6.93;;
23747;SDS011;12054;53.662;10.126;2023-07-24T08:51:01;7.70;;;6.90;;
23747;SDS011;12054;53.662;10.126;2023-07-24T08:53:38;8.40;;;7.47;;
23747;SDS011;12054;53.662;10.126;2023-07-24T08:56:05;10.70;;;7.85;;
23747;SDS011;12054;53.662;10.126;2023-07-24T08:58:36;7.72;;;7.00;;
23747;SDS011;12054;53.662;10.126;2023-07-24T09:01:02;8.20;;;6.60;;
23747;SDS011;12054;53.662;10.126;2023-07-24T09:03:37;9.45;;;7.22;;
23747;SDS011;12054;53.662;10.126;2023-07-24T09:06:03;7.95;;;7.15;;
23747;SDS011;12054;53.662;10.126;2023-07-24T09:08:33;8.00;;;7.15;;
23747;SDS011;12054;53.662;10.126;2023-07-24T09:11:00;8.43;;;7.53;;
23747;SDS011;12054;53.662;10.126;2023-07-24T09:13:27;8.10;;;7.30;;
23747;SDS011;12054;53.662;10.126;2023-07-24T09:15:53;8.55;;;7.28;;
23747;SDS011;12054;53.662;10.126;2023-07-24T09:18:19;7.40;;;6.68;;
23747;SDS011;12054;53.662;10.126;2023-07-24T09:20:46;7.35;;;6.60;;
23747;SDS011;12054;53.662;10.126;2023-07-24T09:23:12;9.43;;;6.53;;
23747;SDS011;12054;53.662;10.126;2023-07-24T09:25:39;8.52;;;6.30;;
23747;SDS011;12054;53.662;10.126;2023-07-24T09:30:38;7.90;;;6.53;;
23747;SDS011;12054;53.662;10.126;2023-07-24T09:33:04;7.63;;;5.97;;
23747;SDS011;12054;53.662;10.126;2023-07-24T09:35:30;6.72;;;5.80;;
23747;SDS011;12054;53.662;10.126;2023-07-24T09:38:06;7.38;;;5.97;;
23747;SDS011;12054;53.662;10.126;2023-07-24T09:40:43;6.72;;;5.80;;
23747;SDS011;12054;53.662;10.126;2023-07-24T09:43:27;7.22;;;5.72;;
23747;SDS011;12054;53.662;10.126;2023-07-24T09:45:53;5.93;;;5.32;;
23747;SDS011;12054;53.662;10.126;2023-07-24T09:48:20;6.70;;;5.80;;
23747;SDS011;12054;53.662;10.126;2023-07-24T09:50:48;6.63;;;6.00;;
23747;SDS011;12054;53.662;10.126;2023-07-24T09:56:34;8.07;;;6.10;;
23747;SDS011;12054;53.662;10.126;2023-07-24T09:59:02;7.63;;;6.82;;
23747;SDS011;12054;53.662;10.126;2023-07-24T10:01:28;7.60;;;6.30;;
23747;SDS011;12054;53.662;10.126;2023-07-24T10:03:55;7.30;;;6.60;;
23747;SDS011;12054;53.662;10.126;2023-07-24T10:06:22;6.60;;;6.00;;
23747;SDS011;12054;53.662;10.126;2023-07-24T10:08:49;6.80;;;6.20;;
23747;SDS011;12054;53.662;10.126;2023-07-24T10:11:16;9.20;;;6.30;;
23747;SDS011;12054;53.662;10.126;2023-07-24T10:13:41;8.63;;;6.15;;
23747;SDS011;12054;53.662;10.126;2023-07-24T10:16:07;7.03;;;5.75;;
23747;SDS011;12054;53.662;10.126;2023-07-24T10:18:34;7.57;;;5.20;;
23747;SDS011;12054;53.662;10.126;2023-07-24T10:21:07;6.72;;;5.43;;
23747;SDS011;12054;53.662;10.126;2023-07-24T10:23:34;6.40;;;5.03;;
23747;SDS011;12054;53.662;10.126;2023-07-24T10:26:04;5.68;;;4.95;;
23747;SDS011;12054;53.662;10.126;2023-07-24T10:28:30;6.75;;;4.65;;
23747;SDS011;12054;53.662;10.126;2023-07-24T10:30:58;6.20;;;5.60;;
23747;SDS011;12054;53.662;10.126;2023-07-24T10:33:29;5.38;;;4.75;;
23747;SDS011;12054;53.662;10.126;2023-07-24T10:36:03;6.03;;;5.20;;
23747;SDS011;12054;53.662;10.126;2023-07-24T10:38:34;6.55;;;5.47;;
23747;SDS011;12054;53.662;10.126;2023-07-24T10:41:01;6.18;;;5.55;;
23747;SDS011;12054;53.662;10.126;2023-07-24T10:43:47;6.80;;;5.00;;
23747;SDS011;12054;53.662;10.126;2023-07-24T10:46:14;6.35;;;4.82;;
23747;SDS011;12054;53.662;10.126;2023-07-24T10:48:48;6.88;;;5.53;;
23747;SDS011;12054;53.662;10.126;2023-07-24T10:51:16;6.75;;;5.40;;
23747;SDS011;12054;53.662;10.126;2023-07-24T10:53:44;6.47;;;5.18;;
23747;SDS011;12054;53.662;10.126;2023-07-24T10:56:12;6.35;;;5.55;;
23747;SDS011;12054;53.662;10.126;2023-07-24T10:58:38;5.90;;;5.30;;
23747;SDS011;12054;53.662;10.126;2023-07-24T11:01:04;9.00;;;6.07;;
23747;SDS011;12054;53.662;10.126;2023-07-24T11:03:31;6.78;;;5.63;;
23747;SDS011;12054;53.662;10.126;2023-07-24T11:05:57;7.03;;;5.60;;
23747;SDS011;12054;53.662;10.126;2023-07-24T11:08:23;8.05;;;6.00;;
23747;SDS011;12054;53.662;10.126;2023-07-24T11:10:53;6.03;;;5.13;;
23747;SDS011;12054;53.662;10.126;2023-07-24T11:13:22;7.10;;;4.82;;
23747;SDS011;12054;53.662;10.126;2023-07-24T11:15:52;6.53;;;4.75;;
23747;SDS011;12054;53.662;10.126;2023-07-24T11:18:19;6.50;;;5.57;;
23747;SDS011;12054;53.662;10.126;2023-07-24T11:20:52;5.80;;;4.93;;
23747;SDS011;12054;53.662;10.126;2023-07-24T11:23:19;6.50;;;5.20;;
23747;SDS011;12054;53.662;10.126;2023-07-24T11:25:45;6.80;;;5.28;;
23747;SDS011;12054;53.662;10.126;2023-07-24T11:28:12;6.30;;;4.88;;
23747;SDS011;12054;53.662;10.126;2023-07-24T11:30:39;6.50;;;4.82;;
23747;SDS011;12054;53.662;10.126;2023-07-24T11:33:06;5.32;;;4.50;;
23747;SDS011;12054;53.662;10.126;2023-07-24T11:35:33;6.63;;;4.95;;
23747;SDS011;12054;53.662;10.126;2023-07-24T11:38:00;6.07;;;4.55;;
23747;SDS011;12054;53.662;10.126;2023-07-24T11:40:32;5.20;;;4.70;;
23747;SDS011;12054;53.662;10.126;2023-07-24T11:43:01;4.97;;;4.20;;
23747;SDS011;12054;53.662;10.126;2023-07-24T11:45:27;5.30;;;4.72;;
23747;SDS011;12054;53.662;10.126;2023-07-24T11:47:53;5.18;;;4.65;;
23747;SDS011;12054;53.662;10.126;2023-07-24T11:50:20;6.13;;;4.50;;
23747;SDS011;12054;53.662;10.126;2023-07-24T11:52:51;6.03;;;4.57;;
23747;SDS011;12054;53.662;10.126;2023-07-24T11:55:31;6.07;;;4.68;;
23747;SDS011;12054;53.662;10.126;2023-07-24T11:58:00;5.07;;;4.57;;
23747;SDS011;12054;53.662;10.126;2023-07-24T12:00:28;5.40;;;4.38;;
23747;SDS011;12054;53.662;10.126;2023-07-24T12:03:01;6.32;;;4.93;;
23747;SDS011;12054;53.662;10.126;2023-07-24T12:05:29;4.65;;;4.15;;
23747;SDS011;12054;53.662;10.126;2023-07-24T12:08:02;5.53;;;4.53;;
23747;SDS011;12054;53.662;10.126;2023-07-24T12:10:27;5.18;;;4.55;;
23747;SDS011;12054;53.662;10.126;2023-07-24T12:12:54;5.32;;;4.82;;
23747;SDS011;12054;53.662;10.126;2023-07-24T12:15:22;5.15;;;4.57;;
23747;SDS011;12054;53.662;10.126;2023-07-24T12:17:48;5.00;;;4.10;;
23747;SDS011;12054;53.662;10.126;2023-07-24T12:20:13;5.82;;;4.30;;
23747;SDS011;12054;53.662;10.126;2023-07-24T12:22:40;4.72;;;4.20;;
23747;SDS011;12054;53.662;10.126;2023-07-24T12:25:06;4.20;;;3.80;;
23747;SDS011;12054;53.662;10.126;2023-07-24T12:27:32;5.18;;;4.50;;
23747;SDS011;12054;53.662;10.126;2023-07-24T12:29:58;7.25;;;4.13;;
23747;SDS011;12054;53.662;10.126;2023-07-24T12:32:24;5.32;;;4.53;;
23747;SDS011;12054;53.662;10.126;2023-07-24T12:34:50;4.28;;;3.88;;
23747;SDS011;12054;53.662;10.126;2023-07-24T12:37:17;6.45;;;4.47;;
23747;SDS011;12054;53.662;10.126;2023-07-24T12:39:43;4.28;;;3.88;;
23747;SDS011;12054;53.662;10.126;2023-07-24T12:42:10;4.97;;;4.22;;
23747;SDS011;12054;53.662;10.126;2023-07-24T12:44:36;4.80;;;4.20;;
23747;SDS011;12054;53.662;10.126;2023-07-24T12:47:03;6.13;;;4.60;;
23747;SDS011;12054;53.662;10.126;2023-07-24T12:49:29;6.07;;;4.35;;
23747;SDS011;12054;53.662;10.126;2023-07-24T12:51:55;4.93;;;4.43;;
23747;SDS011;12054;53.662;10.126;2023-07-24T12:54:20;5.05;;;4.53;;
23747;SDS011;12054;53.662;10.126;2023-07-24T12:56:47;6.00;;;4.68;;
23747;SDS011;12054;53.662;10.126;2023-07-24T12:59:13;5.00;;;4.50;;
23747;SDS011;12054;53.662;10.126;2023-07-24T13:01:38;5.38;;;4.70;;
23747;SDS011;12054;53.662;10.126;2023-07-24T13:04:04;4.57;;;4.18;;
23747;SDS011;12054;53.662;10.126;2023-07-24T13:06:29;5.28;;;4.35;;
23747;SDS011;12054;53.662;10.126;2023-07-24T13:08:55;5.18;;;4.68;;
23747;SDS011;12054;53.662;10.126;2023-07-24T13:11:21;4.90;;;4.50;;
23747;SDS011;12054;53.662;10.126;2023-07-24T13:13:47;4.80;;;4.40;;
23747;SDS011;12054;53.662;10.126;2023-07-24T13:16:12;4.80;;;4.30;;
23747;SDS011;12054;53.662;10.126;2023-07-24T13:18:38;5.25;;;4.68;;
23747;SDS011;12054;53.662;10.126;2023-07-24T13:21:04;5.15;;;4.32;;
23747;SDS011;12054;53.662;10.126;2023-07-24T13:23:32;5.50;;;4.28;;
23747;SDS011;12054;53.662;10.126;2023-07-24T13:25:58;5.00;;;4.50;;
23747;SDS011;12054;53.662;10.126;2023-07-24T13:28:23;5.25;;;4.75;;
23747;SDS011;12054;53.662;10.126;2023-07-24T13:30:49;6.18;;;4.60;;
23747;SDS011;12054;53.662;10.126;2023-07-24T13:33:14;5.45;;;4.95;;
23747;SDS011;12054;53.662;10.126;2023-07-24T13:35:40;4.97;;;4.57;;
23747;SDS011;12054;53.662;10.126;2023-07-24T13:38:06;4.88;;;4.47;;
23747;SDS011;12054;53.662;10.126;2023-07-24T13:40:33;5.45;;;4.90;;
23747;SDS011;12054;53.662;10.126;2023-07-24T13:42:59;5.65;;;4.93;;
23747;SDS011;12054;53.662;10.126;2023-07-24T13:45:24;5.30;;;4.55;;
23747;SDS011;12054;53.662;10.126;2023-07-24T13:47:50;5.53;;;4.72;;
23747;SDS011;12054;53.662;10.126;2023-07-24T13:50:16;5.25;;;4.82;;
23747;SDS011;12054;53.662;10.126;2023-07-24T13:52:41;4.90;;;4.50;;
23747;SDS011;12054;53.662;10.126;2023-07-24T13:55:07;5.25;;;4.75;;
23747;SDS011;12054;53.662;10.126;2023-07-24T13:57:33;5.50;;;4.57;;
23747;SDS011;12054;53.662;10.126;2023-07-24T13:59:58;5.00;;;4.50;;
23747;SDS011;12054;53.662;10.126;2023-07-24T14:02:25;4.68;;;4.28;;
23747;SDS011;12054;53.662;10.126;2023-07-24T14:04:50;4.75;;;4.22;;
23747;SDS011;12054;53.662;10.126;2023-07-24T14:07:16;5.38;;;4.03;;
23747;SDS011;12054;53.662;10.126;2023-07-24T14:09:41;4.22;;;3.83;;
23747;SDS011;12054;53.662;10.126;2023-07-24T14:12:07;5.60;;;4.68;;
23747;SDS011;12054;53.662;10.126;2023-07-24T14:14:32;4.57;;;4.18;;
23747;SDS011;12054;53.662;10.126;2023-07-24T14:16:58;4.40;;;3.97;;
23747;SDS011;12054;53.662;10.126;2023-07-24T14:19:24;4.15;;;3.80;;
23747;SDS011;12054;53.662;10.126;2023-07-24T14:21:49;4.35;;;3.97;;
23747;SDS011;12054;53.662;10.126;2023-07-24T14:24:15;4.65;;;4.25;;
23747;SDS011;12054;53.662;10.126;2023-07-24T14:26:41;5.47;;;4.40;;
23747;SDS011;12054;53.662;10.126;2023-07-24T14:29:06;5.07;;;4.57;;
23747;SDS011;12054;53.662;10.126;2023-07-24T14:31:32;4.47;;;4.07;;
23747;SDS011;12054;53.662;10.126;2023-07-24T14:33:58;4.82;;;4.32;;
23747;SDS011;12054;53.662;10.126;2023-07-24T14:36:23;6.53;;;4.13;;
23747;SDS011;12054;53.662;10.126;2023-07-24T14:38:49;5.22;;;4.40;;